Pagrindinis puslapis
METAR-TAF:

METAR-TAF

Oro uostai :

Udontanis, Tailandas

platuma: 17-23N, ilguma: 102-48E, Aukštis: 177 m

Dabartinis oras

Ataskaita buvo paskelbta 5 valandos ir 47 minutes, ne 15:00 UTC
Vėjas 2 kt iš Rytų/Pietryčių
Temperatūra 26°C
Drėgmė 100%
Slėgis 1011 hPa
Matomumas: 9000 m

METAR: VTUD 191500Z 12002KT 9000 NSC 26/26 Q1011 NOSIG

Laikas: 03:47 (20:47 UTC)

Prognozė

Ataskaita buvo paskelbta 3 valandos ir 47 minutes, ne 17:00 UTC
Prognozė galioja nuo 19 metu 18 UTC su 20 metu 18 UTC
Vėjas 6 kt iš Šiaurės/Šiaurės Rytų
Matomumas 10 km arba daugiau
Išsisklaidę debesys ne aukštis 2000 ft
Išsisklaidę debesys ne aukštis 8000 ft
Laikinai
nuo 20 metu 06 UTC su 20 metu 12 UTC
Vėjas 10 kt nuo kintamojo kryptimis su gūsio iki 20 kt
Matomumas: 5000 m
Mažai debesys ne aukštis 1800 ft, Liūtiniai kamuoliniai debesys.
Su prošvaistėmis ne aukštis 2000 ft
Su prošvaistėmis ne aukštis 10000 ft
perkūnija, lietus

TAF: VTUD 191700Z 1918/2018 03006KT 9999 SCT020 SCT080 TEMPO 2006/2012 VRB10G20KT 5000 TSRA FEW018CB BKN020 BKN100

Orai ataskaitas ir orų prognozės (METAR, TAF).

turimą stotys yra geltonos ir raudonos taškus žemėlapyje.

Perkelti pele per norėdami pamatyti stoties vardą.

Tada spustelėkite, norėdami matyti oro stebėjimo ir prognozės.

Norėdami pakeisti žemėlapį: spustelėkite ant žalios mygtukų su juodo kryžiaus žemyn,; žalią mygtuką su brūkšneliu, jei norite nutolinti; arba žalių rodyklių gretimoms žemėlapius.


METAR-TAF: